createdAt,value
2023-04-18T00:03:05.896Z,98617.13
2023-04-18T00:06:13.224Z,98625.19
2023-04-18T00:09:24.761Z,98622.22
2023-04-18T00:12:30.362Z,98618.78
2023-04-18T00:15:37.298Z,98619.09
2023-04-18T00:18:43.439Z,98629.47
2023-04-18T00:21:49.977Z,98626.66
2023-04-18T00:24:58.174Z,98625.84
2023-04-18T00:28:04.522Z,98627.34
2023-04-18T00:31:10.155Z,98623.69
2023-04-18T00:34:16.541Z,98628.97
2023-04-18T00:37:24.529Z,98626.53
2023-04-18T00:40:34.043Z,98623.88
2023-04-18T00:43:39.756Z,98620.09
2023-04-18T00:46:46.505Z,98621.56
2023-04-18T00:49:52.657Z,98614.03
2023-04-18T00:53:00.012Z,98608.94
2023-04-18T00:56:09.107Z,98610.25
2023-04-18T00:59:17.267Z,98606.63
2023-04-18T01:02:26.455Z,98606.63
2023-04-18T01:05:33.280Z,98609.59
2023-04-18T01:08:40.232Z,98610.25
2023-04-18T01:11:49.347Z,98611.72
2023-04-18T01:14:55.150Z,98607.63
2023-04-18T01:18:03.761Z,98609.75
2023-04-18T01:21:10.172Z,98611.72
2023-04-18T01:24:21.811Z,98601.38
2023-04-18T01:27:27.517Z,98591.53
2023-04-18T01:30:33.957Z,98602.84
2023-04-18T01:33:39.701Z,98597.28
2023-04-18T01:36:48.571Z,98604.66
2023-04-18T01:39:58.465Z,98605.00
2023-04-18T01:43:04.838Z,98612.53
2023-04-18T01:46:11.670Z,98608.28
2023-04-18T01:49:19.146Z,98613.19
2023-04-18T01:52:24.734Z,98616.63
2023-04-18T01:55:33.724Z,98622.53
2023-04-18T01:58:39.630Z,98618.44
2023-04-18T02:01:46.253Z,98615.81
2023-04-18T02:04:52.130Z,98608.09
2023-04-18T02:07:59.444Z,98607.94
2023-04-18T02:11:08.498Z,98606.31
2023-04-18T02:14:15.167Z,98609.09
2023-04-18T02:17:21.693Z,98605.81
2023-04-18T02:20:28.876Z,98604.16
2023-04-18T02:23:34.560Z,98590.69
2023-04-18T02:26:43.641Z,98609.22
2023-04-18T02:29:49.288Z,98603.16
2023-04-18T02:32:57.282Z,98607.44
2023-04-18T02:36:02.941Z,98603.97
2023-04-18T02:39:09.281Z,98602.31
2023-04-18T02:42:17.576Z,98606.59
2023-04-18T02:45:24.254Z,98607.41
2023-04-18T02:48:29.987Z,98610.50
2023-04-18T02:51:36.774Z,98607.72
2023-04-18T02:54:42.652Z,98611.47
2023-04-18T02:57:59.222Z,98612.31
2023-04-18T03:01:37.871Z,98616.91
2023-04-18T03:04:48.643Z,98627.56
2023-04-18T03:07:54.411Z,98618.88
2023-04-18T03:11:01.085Z,98625.47
2023-04-18T03:14:11.776Z,98618.41
2023-04-18T03:17:30.196Z,98624.34
2023-04-18T03:20:37.809Z,98616.97
2023-04-18T03:23:46.687Z,98618.44
2023-04-18T03:26:53.224Z,98618.94
2023-04-18T03:30:07.436Z,98613.34
2023-04-18T03:33:15.009Z,98626.00
2023-04-18T03:36:25.494Z,98620.09
2023-04-18T03:39:32.887Z,98626.47
2023-04-18T03:42:42.412Z,98625.66
2023-04-18T03:45:52.580Z,98627.47
2023-04-18T03:48:59.564Z,98622.72
2023-04-18T03:52:05.634Z,98617.13
2023-04-18T03:55:13.642Z,98625.00
2023-04-18T03:58:23.930Z,98620.91
2023-04-18T04:01:34.817Z,98624.50
2023-04-18T04:04:41.226Z,98633.88
2023-04-18T04:07:49.795Z,98630.41
2023-04-18T04:10:56.520Z,98635.00
2023-04-18T04:14:03.855Z,98639.28
2023-04-18T04:17:19.841Z,98645.03
2023-04-18T04:20:27.054Z,98645.19
2023-04-18T04:23:46.544Z,98651.25
2023-04-18T04:27:04.103Z,98662.09
2023-04-18T04:30:14.022Z,98652.06
2023-04-18T04:33:25.740Z,98659.63
2023-04-18T04:36:35.075Z,98667.03
2023-04-18T04:39:43.622Z,98667.84
2023-04-18T04:43:20.842Z,98673.28
2023-04-18T04:46:29.606Z,98671.16
2023-04-18T04:49:39.326Z,98679.34
2023-04-18T04:52:46.267Z,98677.88
2023-04-18T04:55:53.676Z,98687.44
2023-04-18T04:59:02.152Z,98680.38
2023-04-18T05:02:15.119Z,98684.47
2023-04-18T05:05:24.288Z,98687.91
2023-04-18T05:08:30.162Z,98688.91
2023-04-18T05:11:36.497Z,98685.13
2023-04-18T05:14:42.099Z,98695.13
2023-04-18T05:17:48.541Z,98702.19
2023-04-18T05:20:57.095Z,98693.66
2023-04-18T05:24:03.443Z,98704.81
2023-04-18T05:27:09.995Z,98700.22
2023-04-18T05:30:16.852Z,98714.66
2023-04-18T05:33:22.524Z,98725.69
2023-04-18T05:36:32.015Z,98722.22
2023-04-18T05:39:37.677Z,98723.88
2023-04-18T05:42:44.050Z,98727.13
2023-04-18T05:45:50.768Z,98723.16
2023-04-18T05:48:57.168Z,98723.16
2023-04-18T05:52:05.484Z,98722.34
2023-04-18T05:55:12.864Z,98731.88
2023-04-18T05:58:18.631Z,98733.66
2023-04-18T06:01:25.186Z,98738.53
2023-04-18T06:04:30.991Z,98740.94
2023-04-18T06:07:40.229Z,98741.41
2023-04-18T06:10:46.126Z,98740.06
2023-04-18T06:13:52.648Z,98730.84
2023-04-18T06:16:58.459Z,98744.19
2023-04-18T06:20:06.437Z,98742.91
2023-04-18T06:23:14.807Z,98752.22
2023-04-18T06:26:21.374Z,98752.97
2023-04-18T06:29:30.533Z,98748.69
2023-04-18T06:32:37.226Z,98752.00
2023-04-18T06:35:43.236Z,98764.38
2023-04-18T06:38:52.586Z,98765.34
2023-04-18T06:41:58.369Z,98755.78
2023-04-18T06:45:10.995Z,98762.28
2023-04-18T06:48:16.974Z,98774.22
2023-04-18T06:51:23.409Z,98767.44
2023-04-18T06:54:31.733Z,98771.16
2023-04-18T06:57:38.379Z,98778.88
2023-04-18T07:00:44.396Z,98779.69
2023-04-18T07:03:51.206Z,98783.94
2023-04-18T07:06:57.133Z,98772.84
2023-04-18T07:10:06.446Z,98784.25
2023-04-18T07:13:12.151Z,98781.56
2023-04-18T07:16:18.707Z,98772.91
2023-04-18T07:19:24.277Z,98780.91
2023-04-18T07:22:30.603Z,98777.16
2023-04-18T07:25:38.980Z,98785.69
2023-04-18T07:28:45.394Z,98776.25
2023-04-18T07:31:51.781Z,98776.13
2023-04-18T07:34:59.365Z,98777.69
2023-04-18T07:38:05.238Z,98769.03
2023-04-18T07:41:14.177Z,98771.66
2023-04-18T07:44:21.718Z,98768.22
2023-04-18T07:47:31.878Z,98769.53
2023-04-18T07:50:38.379Z,98782.84
2023-04-18T07:53:44.868Z,98784.13
2023-04-18T07:56:53.301Z,98776.78
2023-04-18T07:59:59.744Z,98784.28
2023-04-18T08:03:07.887Z,98789.28
2023-04-18T08:06:14.443Z,98779.09
2023-04-18T08:09:20.818Z,98774.03
2023-04-18T08:12:29.879Z,98783.91
2023-04-18T08:15:35.514Z,98790.81
2023-04-18T08:18:41.925Z,98786.38
2023-04-18T08:21:47.548Z,98799.00
2023-04-18T08:25:04.216Z,98784.72
2023-04-18T08:28:13.916Z,98798.22
2023-04-18T08:31:20.448Z,98802.09
2023-04-18T08:34:26.626Z,98802.00
2023-04-18T08:37:35.485Z,98811.50
2023-04-18T08:40:41.621Z,98805.78
2023-04-18T08:43:55.924Z,98806.31
2023-04-18T08:47:04.178Z,98806.22
2023-04-18T08:50:13.051Z,98804.44
2023-04-18T08:53:19.562Z,98801.16
2023-04-18T08:56:26.232Z,98804.25
2023-04-18T08:59:35.865Z,98812.06
2023-04-18T09:02:47.247Z,98803.97
2023-04-18T09:06:12.711Z,98801.69
2023-04-18T09:09:19.879Z,98806.19
2023-04-18T09:12:27.535Z,98802.34
2023-04-18T09:15:36.862Z,98807.72
2023-04-18T09:18:42.560Z,98801.50
2023-04-18T09:21:49.166Z,98801.16
2023-04-18T09:24:58.379Z,98805.50
2023-04-18T09:28:07.094Z,98794.63
2023-04-18T09:31:17.710Z,98804.25
2023-04-18T09:34:26.649Z,98798.72
2023-04-18T09:37:32.865Z,98794.63
2023-04-18T09:40:39.636Z,98794.22
2023-04-18T09:43:46.396Z,98788.63
2023-04-18T09:46:55.641Z,98789.06
2023-04-18T09:50:01.456Z,98787.41
2023-04-18T09:53:11.547Z,98793.53
2023-04-18T09:56:28.465Z,98791.09
2023-04-18T10:03:08.526Z,98783.84
2023-04-18T10:06:18.957Z,98782.53
2023-04-18T10:09:26.527Z,98765.72
2023-04-18T10:12:33.217Z,98767.88
2023-04-18T10:15:41.763Z,98776.72
2023-04-18T10:18:54.436Z,98771.69
2023-04-18T10:22:03.971Z,98775.00
2023-04-18T10:25:11.466Z,98770.09
2023-04-18T10:28:17.323Z,98770.75
2023-04-18T10:31:26.106Z,98779.56
2023-04-18T10:34:34.602Z,98776.09
2023-04-18T10:37:54.390Z,98765.91
2023-04-18T10:41:23.000Z,98766.50
2023-04-18T10:44:29.430Z,98761.91
2023-04-18T10:47:35.260Z,98753.91
2023-04-18T10:51:16.118Z,98763.94
2023-04-18T10:54:33.087Z,98759.09
2023-04-18T10:57:45.988Z,98752.13
2023-04-18T11:00:56.563Z,98754.72
2023-04-18T11:04:03.313Z,98748.34
2023-04-18T11:07:11.744Z,98747.78
2023-04-18T11:10:22.910Z,98746.53
2023-04-18T11:13:29.036Z,98746.25
2023-04-18T11:16:37.730Z,98738.50
2023-04-18T11:19:43.892Z,98757.16
2023-04-18T11:22:55.284Z,98751.53
2023-04-18T11:26:01.975Z,98751.50
2023-04-18T11:29:09.606Z,98755.47
2023-04-18T11:32:15.609Z,98735.31
2023-04-18T11:35:23.015Z,98753.16
2023-04-18T11:38:34.817Z,98738.91
2023-04-18T11:41:48.511Z,98739.84
2023-04-18T11:44:54.715Z,98737.34
2023-04-18T11:48:03.507Z,98734.81
2023-04-18T11:51:10.871Z,98746.19
2023-04-18T11:54:45.660Z,98734.41
2023-04-18T11:57:56.989Z,98740.88
2023-04-18T12:01:18.011Z,98744.56
2023-04-18T12:04:23.808Z,98739.69
2023-04-18T12:07:39.788Z,98737.84
2023-04-18T12:10:55.129Z,98729.53
2023-04-18T12:14:03.522Z,98718.78
2023-04-18T12:17:09.784Z,98733.28
2023-04-18T12:20:18.831Z,98731.84
2023-04-18T12:23:37.407Z,98735.50
2023-04-18T12:26:52.752Z,98727.97
2023-04-18T12:29:58.374Z,98728.09
2023-04-18T12:33:06.997Z,98726.56
2023-04-18T12:36:13.228Z,98719.59
2023-04-18T12:39:19.684Z,98713.25
2023-04-18T12:42:30.868Z,98714.75
2023-04-18T12:45:37.445Z,98718.03
2023-04-18T12:48:43.204Z,98714.59
2023-04-18T12:51:49.724Z,98711.91
2023-04-18T12:54:56.544Z,98715.25
2023-04-18T12:58:05.783Z,98705.03
2023-04-18T13:01:11.457Z,98707.06
2023-04-18T13:04:18.122Z,98711.16
2023-04-18T13:07:24.034Z,98719.84
2023-04-18T13:10:30.474Z,98704.41
2023-04-18T13:13:39.179Z,98703.66
2023-04-18T13:16:45.750Z,98701.78
2023-04-18T13:19:52.020Z,98700.88
2023-04-18T13:22:58.481Z,98703.50
2023-04-18T13:26:04.214Z,98708.69
2023-04-18T13:29:13.570Z,98714.31
2023-04-18T13:32:19.531Z,98695.72
2023-04-18T13:35:40.098Z,98705.31
2023-04-18T13:38:46.029Z,98711.38
2023-04-18T13:41:57.327Z,98710.78
2023-04-18T13:45:06.080Z,98693.03
2023-04-18T13:48:14.453Z,98703.59
2023-04-18T13:51:21.961Z,98701.75
2023-04-18T13:54:29.772Z,98703.63
2023-04-18T13:57:37.521Z,98701.72
2023-04-18T14:00:46.624Z,98699.38
2023-04-18T14:03:52.345Z,98694.00
2023-04-18T14:06:58.934Z,98702.56
2023-04-18T14:10:04.470Z,98698.97
2023-04-18T14:13:10.887Z,98702.25
2023-04-18T14:16:19.441Z,98704.44
2023-04-18T14:19:25.821Z,98708.31
2023-04-18T14:22:31.506Z,98712.44
2023-04-18T14:25:38.245Z,98712.28
2023-04-18T14:28:43.984Z,98704.78
2023-04-18T14:31:53.721Z,98716.06
2023-04-18T14:34:59.384Z,98715.16
2023-04-18T14:38:05.934Z,98716.56
2023-04-18T14:41:13.367Z,98707.03
2023-04-18T14:44:20.223Z,98720.03
2023-04-18T14:47:32.034Z,98708.63
2023-04-18T14:50:39.715Z,98719.19
2023-04-18T14:53:45.893Z,98707.56
2023-04-18T14:56:53.012Z,98718.47
2023-04-18T14:59:58.767Z,98716.38
2023-04-18T15:03:11.161Z,98705.47
2023-04-18T15:06:20.760Z,98712.09
2023-04-18T15:09:27.393Z,98707.56
2023-04-18T15:12:33.934Z,98714.78
2023-04-18T15:15:41.256Z,98717.25
2023-04-18T15:18:49.542Z,98712.03
2023-04-18T15:21:55.883Z,98715.59
2023-04-18T15:25:01.554Z,98714.31
2023-04-18T15:28:08.398Z,98714.69
2023-04-18T15:31:14.582Z,98711.31
2023-04-18T15:34:23.546Z,98715.72
2023-04-18T15:37:29.259Z,98712.69
2023-04-18T15:40:36.471Z,98715.50
2023-04-18T15:43:42.784Z,98716.06
2023-04-18T15:46:49.287Z,98721.56
2023-04-18T15:49:57.582Z,98725.16
2023-04-18T15:53:04.702Z,98723.97
2023-04-18T15:56:10.476Z,98727.59
2023-04-18T15:59:17.192Z,98727.22
2023-04-18T16:02:22.818Z,98725.50
2023-04-18T16:05:31.974Z,98728.50
2023-04-18T16:08:37.740Z,98732.66
2023-04-18T16:11:44.204Z,98721.03
2023-04-18T16:14:49.805Z,98732.56
2023-04-18T16:17:56.567Z,98731.28
2023-04-18T16:21:05.252Z,98725.84
2023-04-18T16:24:12.612Z,98721.63
2023-04-18T16:27:18.448Z,98727.59
2023-04-18T16:30:24.921Z,98727.19
2023-04-18T16:33:30.739Z,98734.38
2023-04-18T16:36:39.766Z,98731.72
2023-04-18T16:39:45.562Z,98732.75
2023-04-18T16:42:53.056Z,98736.84
2023-04-18T16:46:00.470Z,98734.41
2023-04-18T16:49:06.831Z,98737.91
2023-04-18T16:52:16.773Z,98732.19
2023-04-18T16:55:23.173Z,98740.16
2023-04-18T16:58:28.842Z,98735.28
2023-04-18T17:01:35.306Z,98735.06
2023-04-18T17:04:42.422Z,98739.78
2023-04-18T17:07:51.892Z,98747.34
2023-04-18T17:10:59.596Z,98751.00
2023-04-18T17:14:05.908Z,98750.75
2023-04-18T17:17:11.601Z,98741.16
2023-04-18T17:20:19.381Z,98753.00
2023-04-18T17:23:27.760Z,98755.19
2023-04-18T17:26:35.325Z,98742.34
2023-04-18T17:29:41.156Z,98752.94
2023-04-18T17:32:49.352Z,98754.13
2023-04-18T17:35:55.130Z,98758.19
2023-04-18T17:39:06.732Z,98756.16
2023-04-18T17:42:12.578Z,98764.91
2023-04-18T17:45:20.606Z,98763.66
2023-04-18T17:48:29.181Z,98763.38
2023-04-18T17:51:36.166Z,98760.44
2023-04-18T17:54:44.288Z,98767.69
2023-04-18T17:57:50.972Z,98777.38
2023-04-18T18:00:56.928Z,98771.16
2023-04-18T18:04:04.003Z,98771.94
2023-04-18T18:07:09.816Z,98774.69
2023-04-18T18:10:23.406Z,98772.00
2023-04-18T18:13:29.303Z,98774.69
2023-04-18T18:16:35.788Z,98778.22
2023-04-18T18:19:41.499Z,98779.84
2023-04-18T18:22:48.155Z,98782.06
2023-04-18T18:25:56.519Z,98780.94
2023-04-18T18:29:09.320Z,98785.66
2023-04-18T18:32:15.020Z,98787.47
2023-04-18T18:35:21.809Z,98786.94
2023-04-18T18:38:27.453Z,98783.50
2023-04-18T18:41:36.520Z,98792.63
2023-04-18T18:44:42.176Z,98788.91
2023-04-18T18:47:49.079Z,98791.53
2023-04-18T18:50:56.687Z,98789.59
2023-04-18T18:54:03.117Z,98787.66
2023-04-18T18:57:11.448Z,98797.81
2023-04-18T19:00:18.450Z,98786.72
2023-04-18T19:03:24.288Z,98786.03
2023-04-18T19:06:31.063Z,98789.34
2023-04-18T19:09:38.801Z,98786.59
2023-04-18T19:12:47.863Z,98782.56
2023-04-18T19:15:54.220Z,98791.13
2023-04-18T19:19:01.032Z,98787.34
2023-04-18T19:22:06.993Z,98786.41
2023-04-18T19:25:14.879Z,98776.09
2023-04-18T19:28:23.220Z,98790.44
2023-04-18T19:31:29.914Z,98788.56
2023-04-18T19:34:36.365Z,98788.91
2023-04-18T19:37:42.886Z,98786.59
2023-04-18T19:40:49.115Z,98791.06
2023-04-18T19:43:58.152Z,98792.50
2023-04-18T19:47:04.432Z,98790.72
2023-04-18T19:50:12.718Z,98783.72
2023-04-18T19:53:19.113Z,98785.84
2023-04-18T19:56:25.593Z,98776.69
2023-04-18T19:59:33.737Z,98774.16
2023-04-18T20:02:40.592Z,98779.94
2023-04-18T20:05:46.330Z,98781.16
2023-04-18T20:08:53.671Z,98774.34
2023-04-18T20:12:00.740Z,98776.59
2023-04-18T20:15:11.771Z,98776.81
2023-04-18T20:18:17.407Z,98775.69
2023-04-18T20:21:23.898Z,98775.94
2023-04-18T20:24:30.309Z,98774.56
2023-04-18T20:27:36.827Z,98774.00
2023-04-18T20:30:45.929Z,98758.34
2023-04-18T20:33:52.341Z,98766.16
2023-04-18T20:36:59.013Z,98770.16
2023-04-18T20:40:10.453Z,98761.47
2023-04-18T20:43:17.622Z,98758.03
2023-04-18T20:46:26.707Z,98767.75
2023-04-18T20:49:34.339Z,98757.78
2023-04-18T20:52:43.082Z,98761.94
2023-04-18T20:55:48.681Z,98751.19
2023-04-18T20:58:55.122Z,98754.66
2023-04-18T21:02:03.738Z,98742.09
2023-04-18T21:05:11.507Z,98745.94
2023-04-18T21:08:17.309Z,98740.28
2023-04-18T21:11:23.815Z,98733.53
2023-04-18T21:14:29.425Z,98732.53
2023-04-18T21:17:38.496Z,98736.16
2023-04-18T21:20:44.349Z,98723.22
2023-04-18T21:23:50.834Z,98720.28
2023-04-18T21:26:58.013Z,98717.03
2023-04-18T21:30:05.171Z,98722.41
2023-04-18T21:33:13.512Z,98722.78
2023-04-18T21:36:19.943Z,98715.75
2023-04-18T21:39:25.648Z,98720.63
2023-04-18T21:42:32.063Z,98713.59
2023-04-18T21:45:39.773Z,98713.88
2023-04-18T21:48:51.293Z,98698.47
2023-04-18T21:51:57.814Z,98701.78
2023-04-18T21:55:05.160Z,98694.28
2023-04-18T21:58:10.789Z,98693.75
2023-04-18T22:01:17.213Z,98692.53
2023-04-18T22:04:26.765Z,98693.81
2023-04-18T22:07:34.237Z,98682.50
2023-04-18T22:10:42.455Z,98683.88
2023-04-18T22:13:50.301Z,98680.41
2023-04-18T22:16:56.019Z,98686.13
2023-04-18T22:20:05.982Z,98669.47
2023-04-18T22:23:12.299Z,98671.75
2023-04-18T22:26:18.692Z,98657.91
2023-04-18T22:29:25.713Z,98672.00
2023-04-18T22:32:32.139Z,98670.44
2023-04-18T22:35:42.529Z,98669.44
2023-04-18T22:38:56.686Z,98662.69
2023-04-18T22:42:02.912Z,98658.22
2023-04-18T22:45:12.933Z,98657.84
2023-04-18T22:48:19.097Z,98649.09
2023-04-18T22:51:28.970Z,98646.81
2023-04-18T22:54:41.468Z,98648.28
2023-04-18T22:57:47.838Z,98647.09
2023-04-18T23:00:53.771Z,98638.13
2023-04-18T23:04:00.542Z,98626.13
2023-04-18T23:07:09.091Z,98619.22
2023-04-18T23:10:15.591Z,98617.69
2023-04-18T23:13:21.400Z,98616.44
2023-04-18T23:16:28.348Z,98609.44
2023-04-18T23:19:34.062Z,98606.56
2023-04-18T23:22:43.409Z,98603.47
2023-04-18T23:25:48.993Z,98601.03
2023-04-18T23:28:55.665Z,98593.66
2023-04-18T23:32:01.323Z,98591.22
2023-04-18T23:35:09.261Z,98581.72
2023-04-18T23:38:17.440Z,98574.44
2023-04-18T23:41:23.935Z,98575.50
2023-04-18T23:44:29.610Z,98570.63
2023-04-18T23:47:36.037Z,98566.81
2023-04-18T23:50:48.893Z,98559.25
2023-04-18T23:53:58.013Z,98557.31
2023-04-18T23:57:06.521Z,98556.53
